sensor_id;sensor_type;location;lat;lon;timestamp;P1;durP1;ratioP1;P2;durP2;ratioP2
173;SDS011;75;48.784;9.364;2022-09-13T00:01:47;5.70;;;4.60;;
173;SDS011;75;48.784;9.364;2022-09-13T00:04:14;7.73;;;4.40;;
173;SDS011;75;48.784;9.364;2022-09-13T00:06:40;5.87;;;4.37;;
173;SDS011;75;48.784;9.364;2022-09-13T00:09:06;5.60;;;4.37;;
173;SDS011;75;48.784;9.364;2022-09-13T00:11:32;7.77;;;4.80;;
173;SDS011;75;48.784;9.364;2022-09-13T00:13:58;7.00;;;4.33;;
173;SDS011;75;48.784;9.364;2022-09-13T00:16:24;5.40;;;4.43;;
173;SDS011;75;48.784;9.364;2022-09-13T00:18:51;5.73;;;4.90;;
173;SDS011;75;48.784;9.364;2022-09-13T00:21:19;4.93;;;4.00;;
173;SDS011;75;48.784;9.364;2022-09-13T00:23:47;6.33;;;4.30;;
173;SDS011;75;48.784;9.364;2022-09-13T00:26:14;6.17;;;4.50;;
173;SDS011;75;48.784;9.364;2022-09-13T00:28:41;6.83;;;4.87;;
173;SDS011;75;48.784;9.364;2022-09-13T00:31:09;5.77;;;4.40;;
173;SDS011;75;48.784;9.364;2022-09-13T00:33:36;8.67;;;4.77;;
173;SDS011;75;48.784;9.364;2022-09-13T00:36:05;4.63;;;4.27;;
173;SDS011;75;48.784;9.364;2022-09-13T00:38:33;6.37;;;4.63;;
173;SDS011;75;48.784;9.364;2022-09-13T00:41:00;5.60;;;4.57;;
173;SDS011;75;48.784;9.364;2022-09-13T00:43:40;5.20;;;4.43;;
173;SDS011;75;48.784;9.364;2022-09-13T00:46:06;6.00;;;4.73;;
173;SDS011;75;48.784;9.364;2022-09-13T00:48:32;7.30;;;4.60;;
173;SDS011;75;48.784;9.364;2022-09-13T00:50:59;5.93;;;4.60;;
173;SDS011;75;48.784;9.364;2022-09-13T00:53:27;6.00;;;4.80;;
173;SDS011;75;48.784;9.364;2022-09-13T00:56:02;5.80;;;4.57;;
173;SDS011;75;48.784;9.364;2022-09-13T00:58:33;6.27;;;4.83;;
173;SDS011;75;48.784;9.364;2022-09-13T01:01:00;5.67;;;4.60;;
173;SDS011;75;48.784;9.364;2022-09-13T01:03:28;6.20;;;4.63;;
173;SDS011;75;48.784;9.364;2022-09-13T01:08:48;6.40;;;4.50;;
173;SDS011;75;48.784;9.364;2022-09-13T01:11:28;7.60;;;4.70;;
173;SDS011;75;48.784;9.364;2022-09-13T01:13:54;5.40;;;4.70;;
173;SDS011;75;48.784;9.364;2022-09-13T01:16:22;4.57;;;4.20;;
173;SDS011;75;48.784;9.364;2022-09-13T01:18:48;5.50;;;4.57;;
173;SDS011;75;48.784;9.364;2022-09-13T01:27:00;14.07;;;4.90;;
173;SDS011;75;48.784;9.364;2022-09-13T01:29:56;6.77;;;4.60;;
173;SDS011;75;48.784;9.364;2022-09-13T01:32:36;5.20;;;4.57;;
173;SDS011;75;48.784;9.364;2022-09-13T01:42:44;5.70;;;4.70;;
173;SDS011;75;48.784;9.364;2022-09-13T01:45:19;5.10;;;4.27;;
173;SDS011;75;48.784;9.364;2022-09-13T01:47:52;6.93;;;4.43;;
173;SDS011;75;48.784;9.364;2022-09-13T01:50:30;6.70;;;4.93;;
173;SDS011;75;48.784;9.364;2022-09-13T01:53:04;6.83;;;4.70;;
173;SDS011;75;48.784;9.364;2022-09-13T01:55:34;5.50;;;4.73;;
173;SDS011;75;48.784;9.364;2022-09-13T02:03:22;5.80;;;4.60;;
173;SDS011;75;48.784;9.364;2022-09-13T02:05:55;7.30;;;5.07;;
173;SDS011;75;48.784;9.364;2022-09-13T02:08:23;7.60;;;4.60;;
173;SDS011;75;48.784;9.364;2022-09-13T02:10:53;5.93;;;4.40;;
173;SDS011;75;48.784;9.364;2022-09-13T02:13:21;6.30;;;4.97;;
173;SDS011;75;48.784;9.364;2022-09-13T02:15:51;5.37;;;4.60;;
173;SDS011;75;48.784;9.364;2022-09-13T02:18:52;5.90;;;4.80;;
173;SDS011;75;48.784;9.364;2022-09-13T02:21:12;5.50;;;3.90;;
173;SDS011;75;48.784;9.364;2022-09-13T02:23:44;6.67;;;4.80;;
173;SDS011;75;48.784;9.364;2022-09-13T02:26:11;5.90;;;5.00;;
173;SDS011;75;48.784;9.364;2022-09-13T02:28:40;5.10;;;4.40;;
173;SDS011;75;48.784;9.364;2022-09-13T02:31:08;8.90;;;5.10;;
173;SDS011;75;48.784;9.364;2022-09-13T02:33:36;6.20;;;4.63;;
173;SDS011;75;48.784;9.364;2022-09-13T02:36:05;7.83;;;5.00;;
173;SDS011;75;48.784;9.364;2022-09-13T02:38:36;7.03;;;4.57;;
173;SDS011;75;48.784;9.364;2022-09-13T02:41:16;6.50;;;5.17;;
173;SDS011;75;48.784;9.364;2022-09-13T02:43:49;8.30;;;5.57;;
173;SDS011;75;48.784;9.364;2022-09-13T02:49:06;5.37;;;4.63;;
173;SDS011;75;48.784;9.364;2022-09-13T02:51:39;6.80;;;4.60;;
173;SDS011;75;48.784;9.364;2022-09-13T03:01:29;6.43;;;5.10;;
173;SDS011;75;48.784;9.364;2022-09-13T03:03:55;5.83;;;4.73;;
173;SDS011;75;48.784;9.364;2022-09-13T03:06:22;8.13;;;4.87;;
173;SDS011;75;48.784;9.364;2022-09-13T03:08:48;6.23;;;4.67;;
173;SDS011;75;48.784;9.364;2022-09-13T03:11:40;6.00;;;4.20;;
173;SDS011;75;48.784;9.364;2022-09-13T03:29:32;5.20;;;4.13;;
173;SDS011;75;48.784;9.364;2022-09-13T03:37:26;7.20;;;4.73;;
173;SDS011;75;48.784;9.364;2022-09-13T03:39:56;5.50;;;4.40;;
173;SDS011;75;48.784;9.364;2022-09-13T03:42:27;6.60;;;4.70;;
173;SDS011;75;48.784;9.364;2022-09-13T03:44:56;5.20;;;4.20;;
173;SDS011;75;48.784;9.364;2022-09-13T03:47:23;7.37;;;4.73;;
173;SDS011;75;48.784;9.364;2022-09-13T03:49:50;5.63;;;4.70;;
173;SDS011;75;48.784;9.364;2022-09-13T03:52:17;5.30;;;4.33;;
173;SDS011;75;48.784;9.364;2022-09-13T03:54:43;5.93;;;4.33;;
173;SDS011;75;48.784;9.364;2022-09-13T03:57:13;6.10;;;4.67;;
173;SDS011;75;48.784;9.364;2022-09-13T03:59:41;5.83;;;4.40;;
173;SDS011;75;48.784;9.364;2022-09-13T04:02:08;5.40;;;4.37;;
173;SDS011;75;48.784;9.364;2022-09-13T04:04:35;28.37;;;12.53;;
173;SDS011;75;48.784;9.364;2022-09-13T04:07:01;16.67;;;8.43;;
173;SDS011;75;48.784;9.364;2022-09-13T04:09:28;9.30;;;5.43;;
173;SDS011;75;48.784;9.364;2022-09-13T04:11:55;5.97;;;4.70;;
173;SDS011;75;48.784;9.364;2022-09-13T04:14:21;5.83;;;4.40;;
173;SDS011;75;48.784;9.364;2022-09-13T04:16:50;6.67;;;4.40;;
173;SDS011;75;48.784;9.364;2022-09-13T04:19:16;5.03;;;4.40;;
173;SDS011;75;48.784;9.364;2022-09-13T04:21:42;5.10;;;4.23;;
173;SDS011;75;48.784;9.364;2022-09-13T04:24:08;5.43;;;4.30;;
173;SDS011;75;48.784;9.364;2022-09-13T04:26:34;6.97;;;4.27;;
173;SDS011;75;48.784;9.364;2022-09-13T04:29:00;7.53;;;4.80;;
173;SDS011;75;48.784;9.364;2022-09-13T04:31:26;5.57;;;4.60;;
173;SDS011;75;48.784;9.364;2022-09-13T04:33:52;8.97;;;4.70;;
173;SDS011;75;48.784;9.364;2022-09-13T04:36:18;6.73;;;4.87;;
173;SDS011;75;48.784;9.364;2022-09-13T04:38:45;5.40;;;4.27;;
173;SDS011;75;48.784;9.364;2022-09-13T04:41:11;6.20;;;4.87;;
173;SDS011;75;48.784;9.364;2022-09-13T04:43:37;4.77;;;4.30;;
173;SDS011;75;48.784;9.364;2022-09-13T04:46:03;5.93;;;4.57;;
173;SDS011;75;48.784;9.364;2022-09-13T04:48:29;6.07;;;4.43;;
173;SDS011;75;48.784;9.364;2022-09-13T04:50:59;4.60;;;4.20;;
173;SDS011;75;48.784;9.364;2022-09-13T04:53:26;6.83;;;4.27;;
173;SDS011;75;48.784;9.364;2022-09-13T04:55:52;7.57;;;5.30;;
173;SDS011;75;48.784;9.364;2022-09-13T04:58:19;39.30;;;16.77;;
173;SDS011;75;48.784;9.364;2022-09-13T05:00:45;31.83;;;14.50;;
173;SDS011;75;48.784;9.364;2022-09-13T05:03:11;29.60;;;14.23;;
173;SDS011;75;48.784;9.364;2022-09-13T05:05:37;30.23;;;13.83;;
173;SDS011;75;48.784;9.364;2022-09-13T05:08:03;31.30;;;13.40;;
173;SDS011;75;48.784;9.364;2022-09-13T05:10:29;29.17;;;12.40;;
173;SDS011;75;48.784;9.364;2022-09-13T05:12:55;20.03;;;11.03;;
173;SDS011;75;48.784;9.364;2022-09-13T05:15:21;21.40;;;11.30;;
173;SDS011;75;48.784;9.364;2022-09-13T05:17:47;22.40;;;9.60;;
173;SDS011;75;48.784;9.364;2022-09-13T05:20:13;20.10;;;11.27;;
173;SDS011;75;48.784;9.364;2022-09-13T05:22:40;34.13;;;12.00;;
173;SDS011;75;48.784;9.364;2022-09-13T05:25:06;22.70;;;11.73;;
173;SDS011;75;48.784;9.364;2022-09-13T05:27:32;25.67;;;11.60;;
173;SDS011;75;48.784;9.364;2022-09-13T05:29:58;18.50;;;9.55;;
173;SDS011;75;48.784;9.364;2022-09-13T05:32:24;16.70;;;8.90;;
173;SDS011;75;48.784;9.364;2022-09-13T05:34:50;15.83;;;9.20;;
173;SDS011;75;48.784;9.364;2022-09-13T05:37:17;17.43;;;9.40;;
173;SDS011;75;48.784;9.364;2022-09-13T05:39:43;14.47;;;8.67;;
173;SDS011;75;48.784;9.364;2022-09-13T05:42:09;14.80;;;8.10;;
173;SDS011;75;48.784;9.364;2022-09-13T05:44:35;12.77;;;7.87;;
173;SDS011;75;48.784;9.364;2022-09-13T05:47:01;11.60;;;6.70;;
173;SDS011;75;48.784;9.364;2022-09-13T05:49:27;17.07;;;8.20;;
173;SDS011;75;48.784;9.364;2022-09-13T05:51:53;11.63;;;7.23;;
173;SDS011;75;48.784;9.364;2022-09-13T05:54:19;15.07;;;6.60;;
173;SDS011;75;48.784;9.364;2022-09-13T05:56:45;10.83;;;7.00;;
173;SDS011;75;48.784;9.364;2022-09-13T05:59:11;19.07;;;7.53;;
173;SDS011;75;48.784;9.364;2022-09-13T06:01:38;13.63;;;6.93;;
173;SDS011;75;48.784;9.364;2022-09-13T06:04:04;12.10;;;7.20;;
173;SDS011;75;48.784;9.364;2022-09-13T06:06:30;18.47;;;8.90;;
173;SDS011;75;48.784;9.364;2022-09-13T06:08:56;40.03;;;17.87;;
173;SDS011;75;48.784;9.364;2022-09-13T06:11:23;45.20;;;18.67;;
173;SDS011;75;48.784;9.364;2022-09-13T06:13:50;43.83;;;16.60;;
173;SDS011;75;48.784;9.364;2022-09-13T06:16:17;53.17;;;21.00;;
173;SDS011;75;48.784;9.364;2022-09-13T06:18:43;40.93;;;18.50;;
173;SDS011;75;48.784;9.364;2022-09-13T06:21:10;37.27;;;17.80;;
173;SDS011;75;48.784;9.364;2022-09-13T06:23:41;37.73;;;16.63;;
173;SDS011;75;48.784;9.364;2022-09-13T06:26:11;20.63;;;10.40;;
173;SDS011;75;48.784;9.364;2022-09-13T06:28:38;24.47;;;10.30;;
173;SDS011;75;48.784;9.364;2022-09-13T06:33:30;15.30;;;8.73;;
173;SDS011;75;48.784;9.364;2022-09-13T06:36:04;17.63;;;7.90;;
173;SDS011;75;48.784;9.364;2022-09-13T06:38:31;21.40;;;9.20;;
173;SDS011;75;48.784;9.364;2022-09-13T06:43:30;20.63;;;10.23;;
173;SDS011;75;48.784;9.364;2022-09-13T06:46:00;20.57;;;10.97;;
173;SDS011;75;48.784;9.364;2022-09-13T06:48:29;25.23;;;12.47;;
173;SDS011;75;48.784;9.364;2022-09-13T06:50:57;30.03;;;11.70;;
173;SDS011;75;48.784;9.364;2022-09-13T06:53:23;18.03;;;10.40;;
173;SDS011;75;48.784;9.364;2022-09-13T06:55:58;25.97;;;9.90;;
173;SDS011;75;48.784;9.364;2022-09-13T06:58:24;23.73;;;10.43;;
173;SDS011;75;48.784;9.364;2022-09-13T07:00:50;24.33;;;11.60;;
173;SDS011;75;48.784;9.364;2022-09-13T07:03:16;28.87;;;13.40;;
173;SDS011;75;48.784;9.364;2022-09-13T07:05:42;30.17;;;14.10;;
173;SDS011;75;48.784;9.364;2022-09-13T07:08:08;24.60;;;12.87;;
173;SDS011;75;48.784;9.364;2022-09-13T07:10:34;25.73;;;11.40;;
173;SDS011;75;48.784;9.364;2022-09-13T07:13:00;19.33;;;10.97;;
173;SDS011;75;48.784;9.364;2022-09-13T07:15:26;14.53;;;8.50;;
173;SDS011;75;48.784;9.364;2022-09-13T07:17:52;15.07;;;8.10;;
173;SDS011;75;48.784;9.364;2022-09-13T07:20:18;17.53;;;7.87;;
173;SDS011;75;48.784;9.364;2022-09-13T07:22:47;14.53;;;7.80;;
173;SDS011;75;48.784;9.364;2022-09-13T07:25:13;14.33;;;6.93;;
173;SDS011;75;48.784;9.364;2022-09-13T07:27:39;12.60;;;7.17;;
173;SDS011;75;48.784;9.364;2022-09-13T07:30:06;12.53;;;7.17;;
173;SDS011;75;48.784;9.364;2022-09-13T07:32:32;14.60;;;6.73;;
173;SDS011;75;48.784;9.364;2022-09-13T07:34:58;9.63;;;6.33;;
173;SDS011;75;48.784;9.364;2022-09-13T07:37:24;8.47;;;5.90;;
173;SDS011;75;48.784;9.364;2022-09-13T07:39:51;9.17;;;6.20;;
173;SDS011;75;48.784;9.364;2022-09-13T07:42:17;10.67;;;6.27;;
173;SDS011;75;48.784;9.364;2022-09-13T07:44:43;8.93;;;5.83;;
173;SDS011;75;48.784;9.364;2022-09-13T07:47:09;12.30;;;6.50;;
173;SDS011;75;48.784;9.364;2022-09-13T07:49:35;12.17;;;6.23;;
173;SDS011;75;48.784;9.364;2022-09-13T07:52:01;9.27;;;6.10;;
173;SDS011;75;48.784;9.364;2022-09-13T07:54:27;13.13;;;6.13;;
173;SDS011;75;48.784;9.364;2022-09-13T07:56:54;9.53;;;6.07;;
173;SDS011;75;48.784;9.364;2022-09-13T07:59:20;20.00;;;9.83;;
173;SDS011;75;48.784;9.364;2022-09-13T08:01:47;24.00;;;11.93;;
173;SDS011;75;48.784;9.364;2022-09-13T08:04:17;17.63;;;8.10;;
173;SDS011;75;48.784;9.364;2022-09-13T08:06:43;17.00;;;7.70;;
173;SDS011;75;48.784;9.364;2022-09-13T08:09:10;11.47;;;7.40;;
173;SDS011;75;48.784;9.364;2022-09-13T08:11:40;10.43;;;6.00;;
173;SDS011;75;48.784;9.364;2022-09-13T08:14:08;8.00;;;5.33;;
173;SDS011;75;48.784;9.364;2022-09-13T08:16:34;8.70;;;5.43;;
173;SDS011;75;48.784;9.364;2022-09-13T08:19:01;8.83;;;5.70;;
173;SDS011;75;48.784;9.364;2022-09-13T08:21:35;10.00;;;5.53;;
173;SDS011;75;48.784;9.364;2022-09-13T08:24:01;7.37;;;4.80;;
173;SDS011;75;48.784;9.364;2022-09-13T08:26:28;8.47;;;5.10;;
173;SDS011;75;48.784;9.364;2022-09-13T08:28:58;6.73;;;4.90;;
173;SDS011;75;48.784;9.364;2022-09-13T08:31:24;8.33;;;4.53;;
173;SDS011;75;48.784;9.364;2022-09-13T08:33:51;7.80;;;5.07;;
173;SDS011;75;48.784;9.364;2022-09-13T08:36:17;7.03;;;3.83;;
173;SDS011;75;48.784;9.364;2022-09-13T08:38:48;3.80;;;3.30;;
173;SDS011;75;48.784;9.364;2022-09-13T08:41:19;5.00;;;3.60;;
173;SDS011;75;48.784;9.364;2022-09-13T08:43:56;5.23;;;3.47;;
173;SDS011;75;48.784;9.364;2022-09-13T08:46:38;4.40;;;3.50;;
173;SDS011;75;48.784;9.364;2022-09-13T08:49:15;4.87;;;3.30;;
173;SDS011;75;48.784;9.364;2022-09-13T08:51:49;4.80;;;3.20;;
173;SDS011;75;48.784;9.364;2022-09-13T08:54:16;4.60;;;3.30;;
173;SDS011;75;48.784;9.364;2022-09-13T09:01:53;3.67;;;3.07;;
173;SDS011;75;48.784;9.364;2022-09-13T09:04:33;3.50;;;3.10;;
173;SDS011;75;48.784;9.364;2022-09-13T09:07:18;4.20;;;3.00;;
173;SDS011;75;48.784;9.364;2022-09-13T09:09:48;4.10;;;3.07;;
173;SDS011;75;48.784;9.364;2022-09-13T09:14:45;3.93;;;2.90;;
173;SDS011;75;48.784;9.364;2022-09-13T09:17:17;4.70;;;3.03;;
173;SDS011;75;48.784;9.364;2022-09-13T09:19:49;3.73;;;3.00;;
173;SDS011;75;48.784;9.364;2022-09-13T09:22:19;3.20;;;2.70;;
173;SDS011;75;48.784;9.364;2022-09-13T09:24:47;3.93;;;2.80;;
173;SDS011;75;48.784;9.364;2022-09-13T09:27:16;3.87;;;2.70;;
173;SDS011;75;48.784;9.364;2022-09-13T09:29:43;3.80;;;2.80;;
173;SDS011;75;48.784;9.364;2022-09-13T09:37:30;6.93;;;4.13;;
173;SDS011;75;48.784;9.364;2022-09-13T09:39:59;6.10;;;3.90;;
173;SDS011;75;48.784;9.364;2022-09-13T09:42:28;5.60;;;3.20;;
173;SDS011;75;48.784;9.364;2022-09-13T09:44:55;11.03;;;5.43;;
173;SDS011;75;48.784;9.364;2022-09-13T09:47:22;9.00;;;4.47;;
173;SDS011;75;48.784;9.364;2022-09-13T09:49:50;5.17;;;3.37;;
173;SDS011;75;48.784;9.364;2022-09-13T09:52:48;5.27;;;3.90;;
173;SDS011;75;48.784;9.364;2022-09-13T09:55:22;5.60;;;4.03;;
173;SDS011;75;48.784;9.364;2022-09-13T09:57:51;4.67;;;3.50;;
173;SDS011;75;48.784;9.364;2022-09-13T10:00:17;5.93;;;3.97;;
173;SDS011;75;48.784;9.364;2022-09-13T10:02:44;5.63;;;3.97;;
173;SDS011;75;48.784;9.364;2022-09-13T10:05:12;11.30;;;4.90;;
173;SDS011;75;48.784;9.364;2022-09-13T10:07:38;7.47;;;3.70;;
173;SDS011;75;48.784;9.364;2022-09-13T10:10:18;5.80;;;3.60;;
173;SDS011;75;48.784;9.364;2022-09-13T10:12:46;5.80;;;3.90;;
173;SDS011;75;48.784;9.364;2022-09-13T10:15:15;4.23;;;3.53;;
173;SDS011;75;48.784;9.364;2022-09-13T10:17:41;9.63;;;3.93;;
173;SDS011;75;48.784;9.364;2022-09-13T10:22:39;4.77;;;3.67;;
173;SDS011;75;48.784;9.364;2022-09-13T10:25:14;4.97;;;4.00;;
173;SDS011;75;48.784;9.364;2022-09-13T10:27:41;4.87;;;3.70;;
173;SDS011;75;48.784;9.364;2022-09-13T10:32:57;5.43;;;3.40;;
173;SDS011;75;48.784;9.364;2022-09-13T10:35:23;6.70;;;3.80;;
173;SDS011;75;48.784;9.364;2022-09-13T10:37:50;5.33;;;3.60;;
173;SDS011;75;48.784;9.364;2022-09-13T10:40:19;6.63;;;4.00;;
173;SDS011;75;48.784;9.364;2022-09-13T10:42:57;5.80;;;3.80;;
173;SDS011;75;48.784;9.364;2022-09-13T10:45:24;5.10;;;3.70;;
173;SDS011;75;48.784;9.364;2022-09-13T10:47:54;3.83;;;2.90;;
173;SDS011;75;48.784;9.364;2022-09-13T10:50:27;3.83;;;3.10;;
173;SDS011;75;48.784;9.364;2022-09-13T10:52:55;8.80;;;3.20;;
173;SDS011;75;48.784;9.364;2022-09-13T10:55:23;4.47;;;3.10;;
173;SDS011;75;48.784;9.364;2022-09-13T10:57:53;4.43;;;3.13;;
173;SDS011;75;48.784;9.364;2022-09-13T11:00:20;5.63;;;2.73;;
173;SDS011;75;48.784;9.364;2022-09-13T11:05:28;4.73;;;3.20;;
173;SDS011;75;48.784;9.364;2022-09-13T11:08:09;3.97;;;3.03;;
173;SDS011;75;48.784;9.364;2022-09-13T11:10:49;3.40;;;3.10;;
173;SDS011;75;48.784;9.364;2022-09-13T11:16:02;4.13;;;3.30;;
173;SDS011;75;48.784;9.364;2022-09-13T11:18:38;3.67;;;2.93;;
173;SDS011;75;48.784;9.364;2022-09-13T11:23:45;4.57;;;3.00;;
173;SDS011;75;48.784;9.364;2022-09-13T11:26:23;4.10;;;3.00;;
173;SDS011;75;48.784;9.364;2022-09-13T11:33:54;4.60;;;3.27;;
173;SDS011;75;48.784;9.364;2022-09-13T11:39:18;3.60;;;3.20;;
173;SDS011;75;48.784;9.364;2022-09-13T11:41:52;4.50;;;2.90;;
173;SDS011;75;48.784;9.364;2022-09-13T11:46:50;3.30;;;2.57;;
173;SDS011;75;48.784;9.364;2022-09-13T11:49:27;4.33;;;2.70;;
173;SDS011;75;48.784;9.364;2022-09-13T11:52:02;3.60;;;2.90;;
173;SDS011;75;48.784;9.364;2022-09-13T11:56:58;7.07;;;3.10;;
173;SDS011;75;48.784;9.364;2022-09-13T12:02:17;7.00;;;3.53;;
173;SDS011;75;48.784;9.364;2022-09-13T12:04:49;6.50;;;3.13;;
173;SDS011;75;48.784;9.364;2022-09-13T12:07:21;5.37;;;3.20;;
173;SDS011;75;48.784;9.364;2022-09-13T12:09:54;3.50;;;2.43;;
173;SDS011;75;48.784;9.364;2022-09-13T12:12:22;4.63;;;3.13;;
173;SDS011;75;48.784;9.364;2022-09-13T12:14:54;3.97;;;2.60;;
173;SDS011;75;48.784;9.364;2022-09-13T12:17:24;5.47;;;3.03;;
173;SDS011;75;48.784;9.364;2022-09-13T12:19:51;3.30;;;2.70;;
173;SDS011;75;48.784;9.364;2022-09-13T12:22:19;4.30;;;2.83;;
173;SDS011;75;48.784;9.364;2022-09-13T12:24:50;4.30;;;2.70;;
173;SDS011;75;48.784;9.364;2022-09-13T12:32:31;3.97;;;2.67;;
173;SDS011;75;48.784;9.364;2022-09-13T12:35:02;3.13;;;2.40;;
173;SDS011;75;48.784;9.364;2022-09-13T12:40:10;6.93;;;2.70;;
173;SDS011;75;48.784;9.364;2022-09-13T12:47:56;4.23;;;2.90;;
173;SDS011;75;48.784;9.364;2022-09-13T12:53:02;4.93;;;2.77;;
173;SDS011;75;48.784;9.364;2022-09-13T13:02:51;3.83;;;2.40;;
173;SDS011;75;48.784;9.364;2022-09-13T13:07:54;3.37;;;2.50;;
173;SDS011;75;48.784;9.364;2022-09-13T13:10:41;3.73;;;2.40;;
173;SDS011;75;48.784;9.364;2022-09-13T13:13:11;3.40;;;2.20;;
173;SDS011;75;48.784;9.364;2022-09-13T13:18:19;16.13;;;2.57;;
173;SDS011;75;48.784;9.364;2022-09-13T13:31:32;3.20;;;2.40;;
173;SDS011;75;48.784;9.364;2022-09-13T13:34:00;4.60;;;2.50;;
173;SDS011;75;48.784;9.364;2022-09-13T13:36:28;3.27;;;2.37;;
173;SDS011;75;48.784;9.364;2022-09-13T13:38:57;4.30;;;2.60;;
173;SDS011;75;48.784;9.364;2022-09-13T13:46:43;2.40;;;2.00;;
173;SDS011;75;48.784;9.364;2022-09-13T13:57:22;4.47;;;2.40;;
173;SDS011;75;48.784;9.364;2022-09-13T13:59:52;3.50;;;2.00;;
173;SDS011;75;48.784;9.364;2022-09-13T14:02:21;3.57;;;2.03;;
173;SDS011;75;48.784;9.364;2022-09-13T14:10:21;2.40;;;1.90;;
173;SDS011;75;48.784;9.364;2022-09-13T14:12:55;4.87;;;2.63;;
173;SDS011;75;48.784;9.364;2022-09-13T14:15:37;2.60;;;2.03;;
173;SDS011;75;48.784;9.364;2022-09-13T14:20:32;3.70;;;1.90;;
173;SDS011;75;48.784;9.364;2022-09-13T14:25:58;2.70;;;2.07;;
173;SDS011;75;48.784;9.364;2022-09-13T14:28:25;2.27;;;1.80;;
173;SDS011;75;48.784;9.364;2022-09-13T14:30:54;2.80;;;1.90;;
173;SDS011;75;48.784;9.364;2022-09-13T14:33:23;2.80;;;1.87;;
173;SDS011;75;48.784;9.364;2022-09-13T14:36:01;3.37;;;2.33;;
173;SDS011;75;48.784;9.364;2022-09-13T14:38:28;3.30;;;2.30;;
173;SDS011;75;48.784;9.364;2022-09-13T14:43:27;2.93;;;2.20;;
173;SDS011;75;48.784;9.364;2022-09-13T14:45:59;4.43;;;2.70;;
173;SDS011;75;48.784;9.364;2022-09-13T14:48:29;3.10;;;2.20;;
173;SDS011;75;48.784;9.364;2022-09-13T14:50:59;2.80;;;1.97;;
173;SDS011;75;48.784;9.364;2022-09-13T14:53:28;5.57;;;2.47;;
173;SDS011;75;48.784;9.364;2022-09-13T14:55:57;3.23;;;2.10;;
173;SDS011;75;48.784;9.364;2022-09-13T14:58:25;3.00;;;2.00;;
173;SDS011;75;48.784;9.364;2022-09-13T15:00:58;3.70;;;2.27;;
173;SDS011;75;48.784;9.364;2022-09-13T15:03:24;2.40;;;1.90;;
173;SDS011;75;48.784;9.364;2022-09-13T15:05:52;2.70;;;2.00;;
173;SDS011;75;48.784;9.364;2022-09-13T15:10:57;3.60;;;2.23;;
173;SDS011;75;48.784;9.364;2022-09-13T15:13:23;7.53;;;2.47;;
173;SDS011;75;48.784;9.364;2022-09-13T15:15:49;3.20;;;2.30;;
173;SDS011;75;48.784;9.364;2022-09-13T15:23:14;2.83;;;2.23;;
173;SDS011;75;48.784;9.364;2022-09-13T15:25:40;2.57;;;2.13;;
173;SDS011;75;48.784;9.364;2022-09-13T15:28:16;3.33;;;2.23;;
173;SDS011;75;48.784;9.364;2022-09-13T15:30:45;3.73;;;2.30;;
173;SDS011;75;48.784;9.364;2022-09-13T15:35:38;2.53;;;2.00;;
173;SDS011;75;48.784;9.364;2022-09-13T15:43:24;3.70;;;3.03;;
173;SDS011;75;48.784;9.364;2022-09-13T15:45:50;5.17;;;2.90;;
173;SDS011;75;48.784;9.364;2022-09-13T15:48:23;3.20;;;2.30;;
173;SDS011;75;48.784;9.364;2022-09-13T15:51:02;3.30;;;2.47;;
173;SDS011;75;48.784;9.364;2022-09-13T15:53:29;4.00;;;2.53;;
173;SDS011;75;48.784;9.364;2022-09-13T15:55:55;5.67;;;2.60;;
173;SDS011;75;48.784;9.364;2022-09-13T15:58:21;4.30;;;2.47;;
173;SDS011;75;48.784;9.364;2022-09-13T16:00:47;4.60;;;3.30;;
173;SDS011;75;48.784;9.364;2022-09-13T16:03:15;5.50;;;3.70;;
173;SDS011;75;48.784;9.364;2022-09-13T16:05:41;4.00;;;2.77;;
173;SDS011;75;48.784;9.364;2022-09-13T16:08:08;6.80;;;4.40;;
173;SDS011;75;48.784;9.364;2022-09-13T16:10:35;4.27;;;3.00;;
173;SDS011;75;48.784;9.364;2022-09-13T16:13:01;4.67;;;2.80;;
173;SDS011;75;48.784;9.364;2022-09-13T16:15:27;4.87;;;2.53;;
173;SDS011;75;48.784;9.364;2022-09-13T16:17:53;4.23;;;2.20;;
173;SDS011;75;48.784;9.364;2022-09-13T16:20:19;2.90;;;2.13;;
173;SDS011;75;48.784;9.364;2022-09-13T16:22:45;3.27;;;2.40;;
173;SDS011;75;48.784;9.364;2022-09-13T16:25:12;3.70;;;2.80;;
173;SDS011;75;48.784;9.364;2022-09-13T16:27:38;4.33;;;2.80;;
173;SDS011;75;48.784;9.364;2022-09-13T16:30:05;4.67;;;2.60;;
173;SDS011;75;48.784;9.364;2022-09-13T16:32:31;3.50;;;2.50;;
173;SDS011;75;48.784;9.364;2022-09-13T16:34:57;2.90;;;2.30;;
173;SDS011;75;48.784;9.364;2022-09-13T16:37:24;3.77;;;2.50;;
173;SDS011;75;48.784;9.364;2022-09-13T16:39:50;3.30;;;2.40;;
173;SDS011;75;48.784;9.364;2022-09-13T16:42:16;4.30;;;2.30;;
173;SDS011;75;48.784;9.364;2022-09-13T16:44:44;3.20;;;2.30;;
173;SDS011;75;48.784;9.364;2022-09-13T16:47:10;4.27;;;2.97;;
173;SDS011;75;48.784;9.364;2022-09-13T16:49:36;3.97;;;2.40;;
173;SDS011;75;48.784;9.364;2022-09-13T16:52:02;3.70;;;2.80;;
173;SDS011;75;48.784;9.364;2022-09-13T16:54:29;9.63;;;5.13;;
173;SDS011;75;48.784;9.364;2022-09-13T16:56:55;7.13;;;4.80;;
173;SDS011;75;48.784;9.364;2022-09-13T16:59:22;5.33;;;3.40;;
173;SDS011;75;48.784;9.364;2022-09-13T17:01:48;5.10;;;2.80;;
173;SDS011;75;48.784;9.364;2022-09-13T17:04:14;4.03;;;2.90;;
173;SDS011;75;48.784;9.364;2022-09-13T17:06:41;7.57;;;2.97;;
173;SDS011;75;48.784;9.364;2022-09-13T17:09:08;5.43;;;3.20;;
173;SDS011;75;48.784;9.364;2022-09-13T17:11:37;4.20;;;2.80;;
173;SDS011;75;48.784;9.364;2022-09-13T17:14:04;3.50;;;2.60;;
173;SDS011;75;48.784;9.364;2022-09-13T17:16:32;4.33;;;2.73;;
173;SDS011;75;48.784;9.364;2022-09-13T17:19:01;5.03;;;3.13;;
173;SDS011;75;48.784;9.364;2022-09-13T17:21:28;3.73;;;2.70;;
173;SDS011;75;48.784;9.364;2022-09-13T17:23:54;7.43;;;4.50;;
173;SDS011;75;48.784;9.364;2022-09-13T17:26:20;5.57;;;3.97;;
173;SDS011;75;48.784;9.364;2022-09-13T17:28:47;5.60;;;3.70;;
173;SDS011;75;48.784;9.364;2022-09-13T17:31:13;6.80;;;3.60;;
173;SDS011;75;48.784;9.364;2022-09-13T17:33:39;5.37;;;3.10;;
173;SDS011;75;48.784;9.364;2022-09-13T17:36:08;4.60;;;2.90;;
173;SDS011;75;48.784;9.364;2022-09-13T17:38:35;3.20;;;2.70;;
173;SDS011;75;48.784;9.364;2022-09-13T17:41:06;3.60;;;2.80;;
173;SDS011;75;48.784;9.364;2022-09-13T17:43:36;3.50;;;2.80;;
173;SDS011;75;48.784;9.364;2022-09-13T17:46:05;4.63;;;3.13;;
173;SDS011;75;48.784;9.364;2022-09-13T17:48:32;4.13;;;2.50;;
173;SDS011;75;48.784;9.364;2022-09-13T17:51:01;5.10;;;2.90;;
173;SDS011;75;48.784;9.364;2022-09-13T17:53:28;4.50;;;2.83;;
173;SDS011;75;48.784;9.364;2022-09-13T17:55:54;4.40;;;2.70;;
173;SDS011;75;48.784;9.364;2022-09-13T17:58:22;4.03;;;2.50;;
173;SDS011;75;48.784;9.364;2022-09-13T18:00:49;3.97;;;2.57;;
173;SDS011;75;48.784;9.364;2022-09-13T18:03:15;3.83;;;2.60;;
173;SDS011;75;48.784;9.364;2022-09-13T18:05:41;3.23;;;2.40;;
173;SDS011;75;48.784;9.364;2022-09-13T18:08:07;3.67;;;2.40;;
173;SDS011;75;48.784;9.364;2022-09-13T18:10:33;4.77;;;2.70;;
173;SDS011;75;48.784;9.364;2022-09-13T18:12:59;4.23;;;2.40;;
173;SDS011;75;48.784;9.364;2022-09-13T18:15:25;3.20;;;2.60;;
173;SDS011;75;48.784;9.364;2022-09-13T18:17:51;3.53;;;2.77;;
173;SDS011;75;48.784;9.364;2022-09-13T18:20:17;4.07;;;3.23;;
173;SDS011;75;48.784;9.364;2022-09-13T18:22:43;3.50;;;3.20;;
173;SDS011;75;48.784;9.364;2022-09-13T18:25:09;6.53;;;4.00;;
173;SDS011;75;48.784;9.364;2022-09-13T18:27:35;5.70;;;3.50;;
173;SDS011;75;48.784;9.364;2022-09-13T18:30:01;3.97;;;3.40;;
173;SDS011;75;48.784;9.364;2022-09-13T18:32:31;4.37;;;3.40;;
173;SDS011;75;48.784;9.364;2022-09-13T18:34:57;4.37;;;3.20;;
173;SDS011;75;48.784;9.364;2022-09-13T18:37:23;2.90;;;2.50;;
173;SDS011;75;48.784;9.364;2022-09-13T18:39:49;3.17;;;2.73;;
173;SDS011;75;48.784;9.364;2022-09-13T18:42:15;3.27;;;2.60;;
173;SDS011;75;48.784;9.364;2022-09-13T18:44:41;4.40;;;2.67;;
173;SDS011;75;48.784;9.364;2022-09-13T18:47:07;3.90;;;2.60;;
173;SDS011;75;48.784;9.364;2022-09-13T18:49:37;3.60;;;2.60;;
173;SDS011;75;48.784;9.364;2022-09-13T18:52:03;3.43;;;2.40;;
173;SDS011;75;48.784;9.364;2022-09-13T18:54:29;3.10;;;2.50;;
173;SDS011;75;48.784;9.364;2022-09-13T18:56:55;3.47;;;2.60;;
173;SDS011;75;48.784;9.364;2022-09-13T18:59:21;3.80;;;2.90;;
173;SDS011;75;48.784;9.364;2022-09-13T19:01:47;4.30;;;2.80;;
173;SDS011;75;48.784;9.364;2022-09-13T19:04:15;4.70;;;2.63;;
173;SDS011;75;48.784;9.364;2022-09-13T19:06:45;4.23;;;3.00;;